Weather at Letiště Hať u Hlučína

Public forecast

Using degrees Celsius for public forecast. Weather courtesy of forecast.io.

Closest aviation weather report (METAR) to Letiště Hať u Hlučína

Closest report is Ostrava Leos Janáček Airport, 16.5 nm (30.5 km) SSW.

2024/05/19 20:00 (retrieved 24 minutes ago)

LKMT 192000Z VRB02KT CAVOK 14/13 Q1011 NOSIG

Closest aviation forecast (TAF) to Letiště Hať u Hlučína

Closest forecast is Ostrava Leos Janáček Airport, 16.5 nm (30.5 km) SSW.

2024/05/19 18:27 (retrieved 2 hours ago)

TAF TAF LKMT 191700Z 1918/2018 19005KT 9999 SCT035 TEMPO 1918/2000 23015KT 8000 SHRA SCT025TCU PROB30 TEMPO 2002/2005 VRB02KT 2000 BCFG SCT002 TEMPO 2009/2017 7000 SHRA SCT030TCU PROB40 TEMPO 2012/2016 09012G24KT 5000 TSRA BKN020CB